sensor_id;sensor_type;location;lat;lon;timestamp;pressure;altitude;pressure_sealevel;temperature;humidity
35778;BME280;21899;42.662;23.316;2024-03-23T00:53:29;94589.91;;;3.32;64.75
35778;BME280;21899;42.662;23.316;2024-03-23T00:55:54;94583.34;;;3.36;64.41
35778;BME280;21899;42.662;23.316;2024-03-23T00:58:20;94577.72;;;3.34;64.46
35778;BME280;21899;42.662;23.316;2024-03-23T01:00:45;94579.94;;;3.36;64.70
35778;BME280;21899;42.662;23.316;2024-03-23T01:03:11;94581.63;;;3.30;64.69
35778;BME280;21899;42.662;23.316;2024-03-23T01:05:36;94579.72;;;3.30;64.62
35778;BME280;21899;42.662;23.316;2024-03-23T01:08:02;94571.31;;;3.32;64.96
35778;BME280;21899;42.662;23.316;2024-03-23T01:10:28;94575.16;;;3.31;64.78
35778;BME280;21899;42.662;23.316;2024-03-23T01:12:53;94568.84;;;3.25;64.98
35778;BME280;21899;42.662;23.316;2024-03-23T01:15:19;94563.38;;;3.32;64.65
35778;BME280;21899;42.662;23.316;2024-03-23T01:17:44;94555.94;;;3.27;64.50
35778;BME280;21899;42.662;23.316;2024-03-23T01:20:10;94561.44;;;3.20;64.25
35778;BME280;21899;42.662;23.316;2024-03-23T01:22:35;94573.44;;;3.24;64.47
35778;BME280;21899;42.662;23.316;2024-03-23T01:25:01;94570.97;;;3.17;64.20
35778;BME280;21899;42.662;23.316;2024-03-23T01:27:26;94571.38;;;3.16;63.72
35778;BME280;21899;42.662;23.316;2024-03-23T01:29:52;94555.31;;;3.07;63.23
35778;BME280;21899;42.662;23.316;2024-03-23T01:32:18;94568.25;;;3.05;63.61
35778;BME280;21899;42.662;23.316;2024-03-23T01:34:44;94577.97;;;2.95;63.59
35778;BME280;21899;42.662;23.316;2024-03-23T01:37:09;94573.25;;;2.86;62.56
35778;BME280;21899;42.662;23.316;2024-03-23T01:39:35;94572.06;;;2.87;62.88
35778;BME280;21899;42.662;23.316;2024-03-23T01:42:00;94575.81;;;2.90;65.43
35778;BME280;21899;42.662;23.316;2024-03-23T01:44:26;94573.56;;;2.88;65.14
35778;BME280;21899;42.662;23.316;2024-03-23T01:46:52;94572.00;;;2.91;64.67
35778;BME280;21899;42.662;23.316;2024-03-23T01:49:17;94569.56;;;2.96;64.50
35778;BME280;21899;42.662;23.316;2024-03-23T01:51:43;94569.41;;;3.03;64.35
35778;BME280;21899;42.662;23.316;2024-03-23T01:54:10;94570.06;;;3.08;64.16
35778;BME280;21899;42.662;23.316;2024-03-23T01:56:36;94571.72;;;3.01;64.37
35778;BME280;21899;42.662;23.316;2024-03-23T01:59:03;94574.06;;;2.99;63.95
35778;BME280;21899;42.662;23.316;2024-03-23T02:01:28;94579.03;;;2.97;63.26
35778;BME280;21899;42.662;23.316;2024-03-23T02:03:54;94575.72;;;2.93;63.55
35778;BME280;21899;42.662;23.316;2024-03-23T02:06:19;94568.09;;;2.95;64.01
35778;BME280;21899;42.662;23.316;2024-03-23T02:08:45;94574.56;;;2.94;63.85
35778;BME280;21899;42.662;23.316;2024-03-23T02:11:10;94573.56;;;2.88;63.92
35778;BME280;21899;42.662;23.316;2024-03-23T02:13:36;94575.56;;;2.84;64.33
35778;BME280;21899;42.662;23.316;2024-03-23T02:16:02;94574.06;;;2.83;64.12
35778;BME280;21899;42.662;23.316;2024-03-23T02:18:27;94577.56;;;2.80;64.18
35778;BME280;21899;42.662;23.316;2024-03-23T02:20:53;94579.03;;;2.81;64.08
35778;BME280;21899;42.662;23.316;2024-03-23T02:23:18;94573.75;;;2.81;63.90
35778;BME280;21899;42.662;23.316;2024-03-23T02:25:44;94581.13;;;2.74;64.50
35778;BME280;21899;42.662;23.316;2024-03-23T02:28:10;94570.28;;;2.68;64.92
35778;BME280;21899;42.662;23.316;2024-03-23T02:30:36;94585.84;;;2.66;64.96
35778;BME280;21899;42.662;23.316;2024-03-23T02:33:03;94581.88;;;2.42;66.29
35778;BME280;21899;42.662;23.316;2024-03-23T02:35:28;94585.94;;;2.47;66.18
35778;BME280;21899;42.662;23.316;2024-03-23T02:37:54;94582.63;;;2.59;66.33
35778;BME280;21899;42.662;23.316;2024-03-23T02:40:23;94578.72;;;2.63;66.19
35778;BME280;21899;42.662;23.316;2024-03-23T02:42:49;94569.13;;;2.53;66.70
35778;BME280;21899;42.662;23.316;2024-03-23T02:45:15;94572.94;;;2.52;66.44
35778;BME280;21899;42.662;23.316;2024-03-23T02:47:40;94569.44;;;2.55;66.52
35778;BME280;21899;42.662;23.316;2024-03-23T02:50:07;94574.00;;;2.39;67.31
35778;BME280;21899;42.662;23.316;2024-03-23T02:52:32;94573.88;;;2.26;67.98
35778;BME280;21899;42.662;23.316;2024-03-23T02:54:58;94569.91;;;2.18;68.54
35778;BME280;21899;42.662;23.316;2024-03-23T02:57:23;94568.03;;;2.35;67.95
35778;BME280;21899;42.662;23.316;2024-03-23T02:59:49;94572.31;;;2.28;67.95
35778;BME280;21899;42.662;23.316;2024-03-23T03:02:15;94566.31;;;2.28;68.34
35778;BME280;21899;42.662;23.316;2024-03-23T03:04:42;94562.06;;;2.31;68.10
35778;BME280;21899;42.662;23.316;2024-03-23T03:07:07;94562.00;;;2.34;67.87
35778;BME280;21899;42.662;23.316;2024-03-23T03:09:33;94576.06;;;2.31;68.68
35778;BME280;21899;42.662;23.316;2024-03-23T03:12:03;94557.84;;;2.17;68.55
35778;BME280;21899;42.662;23.316;2024-03-23T03:14:28;94567.13;;;2.41;67.80
35778;BME280;21899;42.662;23.316;2024-03-23T03:16:54;94573.50;;;2.44;68.08
35778;BME280;21899;42.662;23.316;2024-03-23T03:19:19;94565.91;;;2.46;67.90
35778;BME280;21899;42.662;23.316;2024-03-23T03:21:45;94570.34;;;2.49;67.24
35778;BME280;21899;42.662;23.316;2024-03-23T03:24:11;94570.94;;;2.40;68.09
35778;BME280;21899;42.662;23.316;2024-03-23T03:26:36;94569.78;;;2.41;67.39
35778;BME280;21899;42.662;23.316;2024-03-23T03:29:02;94571.69;;;2.41;67.77
35778;BME280;21899;42.662;23.316;2024-03-23T03:31:27;94573.16;;;2.42;67.77
35778;BME280;21899;42.662;23.316;2024-03-23T03:33:53;94574.72;;;2.39;67.82
35778;BME280;21899;42.662;23.316;2024-03-23T03:36:19;94571.09;;;2.33;67.80
35778;BME280;21899;42.662;23.316;2024-03-23T03:38:45;94563.91;;;2.34;67.61
35778;BME280;21899;42.662;23.316;2024-03-23T03:41:10;94571.25;;;2.26;67.96
35778;BME280;21899;42.662;23.316;2024-03-23T03:43:36;94584.16;;;2.24;68.51
35778;BME280;21899;42.662;23.316;2024-03-23T03:46:02;94572.09;;;2.23;67.71
35778;BME280;21899;42.662;23.316;2024-03-23T03:48:28;94570.44;;;2.29;68.17
35778;BME280;21899;42.662;23.316;2024-03-23T03:50:53;94570.53;;;2.25;68.44
35778;BME280;21899;42.662;23.316;2024-03-23T03:53:19;94573.50;;;2.28;67.98
35778;BME280;21899;42.662;23.316;2024-03-23T03:55:45;94574.31;;;2.24;68.31
35778;BME280;21899;42.662;23.316;2024-03-23T03:58:11;94575.22;;;2.18;68.02
35778;BME280;21899;42.662;23.316;2024-03-23T04:00:36;94571.91;;;2.14;68.10
35778;BME280;21899;42.662;23.316;2024-03-23T04:03:02;94576.38;;;2.17;68.37
35778;BME280;21899;42.662;23.316;2024-03-23T04:05:27;94570.91;;;2.08;68.47
35778;BME280;21899;42.662;23.316;2024-03-23T04:07:53;94576.25;;;2.04;68.55
35778;BME280;21899;42.662;23.316;2024-03-23T04:10:19;94573.38;;;1.99;68.96
35778;BME280;21899;42.662;23.316;2024-03-23T04:12:45;94575.19;;;2.02;68.04
35778;BME280;21899;42.662;23.316;2024-03-23T04:15:11;94558.28;;;1.96;68.47
35778;BME280;21899;42.662;23.316;2024-03-23T04:17:37;94586.53;;;2.02;68.41
35778;BME280;21899;42.662;23.316;2024-03-23T04:20:03;94586.28;;;1.97;68.42
35778;BME280;21899;42.662;23.316;2024-03-23T04:22:33;94587.06;;;1.94;69.30
35778;BME280;21899;42.662;23.316;2024-03-23T04:24:58;94580.13;;;2.00;69.07
35778;BME280;21899;42.662;23.316;2024-03-23T04:27:24;94574.03;;;2.03;68.83
35778;BME280;21899;42.662;23.316;2024-03-23T04:29:50;94579.31;;;2.03;69.59
35778;BME280;21899;42.662;23.316;2024-03-23T04:32:16;94592.38;;;1.94;69.88
35778;BME280;21899;42.662;23.316;2024-03-23T04:34:43;94590.91;;;1.93;69.58
35778;BME280;21899;42.662;23.316;2024-03-23T04:37:09;94583.28;;;1.95;69.47
35778;BME280;21899;42.662;23.316;2024-03-23T04:39:38;94582.44;;;1.98;69.43
35778;BME280;21899;42.662;23.316;2024-03-23T04:42:04;94588.41;;;2.02;69.38
35778;BME280;21899;42.662;23.316;2024-03-23T04:44:30;94573.38;;;1.99;68.64
35778;BME280;21899;42.662;23.316;2024-03-23T04:46:57;94591.25;;;2.11;67.82
35778;BME280;21899;42.662;23.316;2024-03-23T04:49:22;94597.06;;;2.22;67.63
35778;BME280;21899;42.662;23.316;2024-03-23T04:51:48;94591.72;;;2.25;67.62
35778;BME280;21899;42.662;23.316;2024-03-23T04:54:14;94600.00;;;2.28;67.54
35778;BME280;21899;42.662;23.316;2024-03-23T04:56:39;94599.41;;;2.36;67.19
35778;BME280;21899;42.662;23.316;2024-03-23T04:59:05;94590.56;;;2.43;66.96
35778;BME280;21899;42.662;23.316;2024-03-23T05:01:31;94598.69;;;2.52;66.06
35778;BME280;21899;42.662;23.316;2024-03-23T05:03:57;94597.03;;;2.58;66.26
35778;BME280;21899;42.662;23.316;2024-03-23T05:06:23;94599.09;;;2.66;65.88
35778;BME280;21899;42.662;23.316;2024-03-23T05:08:49;94599.69;;;2.74;66.24
35778;BME280;21899;42.662;23.316;2024-03-23T05:11:15;94602.75;;;2.72;66.68
35778;BME280;21899;42.662;23.316;2024-03-23T05:13:41;94592.81;;;2.76;66.47
35778;BME280;21899;42.662;23.316;2024-03-23T05:16:07;94577.06;;;2.69;66.47
35778;BME280;21899;42.662;23.316;2024-03-23T05:18:34;94597.13;;;2.86;66.20
35778;BME280;21899;42.662;23.316;2024-03-23T05:20:59;94593.13;;;2.94;66.25
35778;BME280;21899;42.662;23.316;2024-03-23T05:23:26;94591.44;;;3.00;66.15
35778;BME280;21899;42.662;23.316;2024-03-23T05:25:51;94588.63;;;3.08;65.94
35778;BME280;21899;42.662;23.316;2024-03-23T05:28:18;94587.38;;;3.12;65.75
35778;BME280;21899;42.662;23.316;2024-03-23T05:30:44;94578.28;;;3.13;65.93
35778;BME280;21899;42.662;23.316;2024-03-23T05:33:09;94587.38;;;3.12;65.49
35778;BME280;21899;42.662;23.316;2024-03-23T05:35:35;94577.50;;;3.13;66.00
35778;BME280;21899;42.662;23.316;2024-03-23T05:38:00;94593.41;;;3.29;65.54
35778;BME280;21899;42.662;23.316;2024-03-23T05:40:29;94595.69;;;3.43;64.68
35778;BME280;21899;42.662;23.316;2024-03-23T05:42:54;94586.66;;;3.40;65.17
35778;BME280;21899;42.662;23.316;2024-03-23T05:45:21;94556.66;;;3.27;64.72
35778;BME280;21899;42.662;23.316;2024-03-23T05:47:48;94588.19;;;3.54;64.32
35778;BME280;21899;42.662;23.316;2024-03-23T05:50:14;94583.00;;;3.63;63.96
35778;BME280;21899;42.662;23.316;2024-03-23T05:52:39;94586.00;;;3.65;64.02
35778;BME280;21899;42.662;23.316;2024-03-23T05:55:08;94586.56;;;3.72;64.26
35778;BME280;21899;42.662;23.316;2024-03-23T05:57:33;94586.25;;;3.83;63.64
35778;BME280;21899;42.662;23.316;2024-03-23T05:59:59;94582.22;;;3.91;63.74
35778;BME280;21899;42.662;23.316;2024-03-23T06:02:24;94594.81;;;4.16;63.31
35778;BME280;21899;42.662;23.316;2024-03-23T06:04:50;94584.41;;;4.34;62.62
35778;BME280;21899;42.662;23.316;2024-03-23T06:07:15;94582.69;;;4.52;61.98
35778;BME280;21899;42.662;23.316;2024-03-23T06:09:41;94583.22;;;4.60;61.41
35778;BME280;21899;42.662;23.316;2024-03-23T06:12:07;94563.34;;;4.65;60.95
35778;BME280;21899;42.662;23.316;2024-03-23T06:14:34;94587.22;;;4.90;60.42
35778;BME280;21899;42.662;23.316;2024-03-23T06:17:00;94583.03;;;5.01;60.03
35778;BME280;21899;42.662;23.316;2024-03-23T06:19:26;94578.34;;;5.05;60.03
35778;BME280;21899;42.662;23.316;2024-03-23T06:21:53;94573.63;;;5.22;59.32
35778;BME280;21899;42.662;23.316;2024-03-23T06:24:21;94576.91;;;5.26;59.45
35778;BME280;21899;42.662;23.316;2024-03-23T06:26:47;94577.91;;;5.41;59.09
35778;BME280;21899;42.662;23.316;2024-03-23T06:29:12;94577.72;;;5.57;58.46
35778;BME280;21899;42.662;23.316;2024-03-23T06:31:38;94575.75;;;5.70;58.13
35778;BME280;21899;42.662;23.316;2024-03-23T06:34:04;94567.28;;;5.84;57.66
35778;BME280;21899;42.662;23.316;2024-03-23T06:36:29;94568.81;;;5.94;57.13
35778;BME280;21899;42.662;23.316;2024-03-23T06:38:56;94574.84;;;6.08;56.66
35778;BME280;21899;42.662;23.316;2024-03-23T06:41:21;94569.72;;;6.22;55.89
35778;BME280;21899;42.662;23.316;2024-03-23T06:43:47;94574.03;;;6.29;55.86
35778;BME280;21899;42.662;23.316;2024-03-23T06:46:12;94579.06;;;6.27;55.86
35778;BME280;21899;42.662;23.316;2024-03-23T06:48:38;94580.31;;;6.44;55.24
35778;BME280;21899;42.662;23.316;2024-03-23T06:51:04;94580.09;;;6.60;55.09
35778;BME280;21899;42.662;23.316;2024-03-23T06:53:29;94575.50;;;6.69;55.00
35778;BME280;21899;42.662;23.316;2024-03-23T06:55:55;94580.75;;;6.82;54.40
35778;BME280;21899;42.662;23.316;2024-03-23T06:58:22;94584.06;;;6.95;54.05
35778;BME280;21899;42.662;23.316;2024-03-23T07:00:48;94579.16;;;7.03;53.00
35778;BME280;21899;42.662;23.316;2024-03-23T07:03:14;94576.34;;;7.15;52.60
35778;BME280;21899;42.662;23.316;2024-03-23T07:05:39;94581.13;;;7.29;51.91
35778;BME280;21899;42.662;23.316;2024-03-23T07:08:05;94574.00;;;7.35;51.53
35778;BME280;21899;42.662;23.316;2024-03-23T07:10:31;94558.88;;;7.32;51.72
35778;BME280;21899;42.662;23.316;2024-03-23T07:12:56;94560.94;;;7.46;51.38
35778;BME280;21899;42.662;23.316;2024-03-23T07:15:22;94568.22;;;7.64;51.29
35778;BME280;21899;42.662;23.316;2024-03-23T07:17:47;94563.72;;;7.79;51.02
35778;BME280;21899;42.662;23.316;2024-03-23T07:20:14;94560.94;;;7.74;51.10
35778;BME280;21899;42.662;23.316;2024-03-23T07:22:39;94550.34;;;7.88;50.56
35778;BME280;21899;42.662;23.316;2024-03-23T07:25:05;94551.97;;;8.04;49.40
35778;BME280;21899;42.662;23.316;2024-03-23T07:27:32;94552.97;;;8.15;48.79
35778;BME280;21899;42.662;23.316;2024-03-23T07:29:57;94551.44;;;8.23;48.87
35778;BME280;21899;42.662;23.316;2024-03-23T07:32:23;94550.56;;;8.36;48.25
35778;BME280;21899;42.662;23.316;2024-03-23T07:34:48;94537.13;;;8.45;46.97
35778;BME280;21899;42.662;23.316;2024-03-23T07:37:14;94542.44;;;8.54;46.92
35778;BME280;21899;42.662;23.316;2024-03-23T07:39:40;94549.56;;;8.57;46.52
35778;BME280;21899;42.662;23.316;2024-03-23T07:42:06;94538.41;;;8.58;45.85
35778;BME280;21899;42.662;23.316;2024-03-23T07:44:31;94540.75;;;8.65;45.87
35778;BME280;21899;42.662;23.316;2024-03-23T07:47:00;94535.63;;;8.76;45.42
35778;BME280;21899;42.662;23.316;2024-03-23T07:49:26;94538.50;;;8.96;44.80
35778;BME280;21899;42.662;23.316;2024-03-23T07:51:51;94543.28;;;8.92;44.97
35778;BME280;21899;42.662;23.316;2024-03-23T07:54:17;94532.69;;;8.74;45.96
35778;BME280;21899;42.662;23.316;2024-03-23T07:56:42;94536.78;;;8.84;45.77
35778;BME280;21899;42.662;23.316;2024-03-23T07:59:08;94534.97;;;8.58;46.27
35778;BME280;21899;42.662;23.316;2024-03-23T08:01:33;94542.19;;;8.43;46.53
35778;BME280;21899;42.662;23.316;2024-03-23T08:03:59;94532.59;;;8.27;47.39
35778;BME280;21899;42.662;23.316;2024-03-23T08:06:25;94538.16;;;8.47;46.79
35778;BME280;21899;42.662;23.316;2024-03-23T08:08:55;94532.25;;;8.34;46.93
35778;BME280;21899;42.662;23.316;2024-03-23T08:11:27;94531.97;;;8.32;47.03
35778;BME280;21899;42.662;23.316;2024-03-23T08:13:53;94531.88;;;8.59;46.64
35778;BME280;21899;42.662;23.316;2024-03-23T08:16:18;94528.63;;;8.79;45.90
35778;BME280;21899;42.662;23.316;2024-03-23T08:18:44;94534.59;;;8.97;45.12
35778;BME280;21899;42.662;23.316;2024-03-23T08:21:09;94530.34;;;9.15;44.66
35778;BME280;21899;42.662;23.316;2024-03-23T08:23:35;94524.84;;;9.33;44.26
35778;BME280;21899;42.662;23.316;2024-03-23T08:26:09;94524.34;;;9.58;44.28
35778;BME280;21899;42.662;23.316;2024-03-23T08:28:35;94524.25;;;9.67;43.36
35778;BME280;21899;42.662;23.316;2024-03-23T08:31:02;94519.66;;;9.82;42.86
35778;BME280;21899;42.662;23.316;2024-03-23T08:33:28;94508.34;;;9.93;42.50
35778;BME280;21899;42.662;23.316;2024-03-23T08:35:57;94520.94;;;9.87;42.84
35778;BME280;21899;42.662;23.316;2024-03-23T08:38:23;94518.72;;;9.85;43.13
35778;BME280;21899;42.662;23.316;2024-03-23T08:41:03;94508.63;;;10.09;42.69
35778;BME280;21899;42.662;23.316;2024-03-23T08:43:29;94502.00;;;10.19;41.95
35778;BME280;21899;42.662;23.316;2024-03-23T08:46:15;94509.38;;;10.24;42.04
35778;BME280;21899;42.662;23.316;2024-03-23T08:48:45;94496.16;;;10.21;42.59
35778;BME280;21899;42.662;23.316;2024-03-23T08:51:13;94497.63;;;10.22;41.33
35778;BME280;21899;42.662;23.316;2024-03-23T08:53:39;94496.69;;;10.25;41.02
35778;BME280;21899;42.662;23.316;2024-03-23T08:56:06;94497.34;;;10.34;41.44
35778;BME280;21899;42.662;23.316;2024-03-23T08:58:32;94494.28;;;10.41;41.55
35778;BME280;21899;42.662;23.316;2024-03-23T09:01:10;94493.22;;;10.54;41.15
35778;BME280;21899;42.662;23.316;2024-03-23T09:03:36;94489.97;;;10.84;41.13
35778;BME280;21899;42.662;23.316;2024-03-23T09:06:06;94482.44;;;11.08;40.63
35778;BME280;21899;42.662;23.316;2024-03-23T09:08:31;94478.72;;;11.26;39.75
35778;BME280;21899;42.662;23.316;2024-03-23T09:10:57;94474.84;;;11.27;39.45
35778;BME280;21899;42.662;23.316;2024-03-23T09:13:22;94466.50;;;11.25;39.24
35778;BME280;21899;42.662;23.316;2024-03-23T09:15:50;94447.31;;;11.12;39.29
35778;BME280;21899;42.662;23.316;2024-03-23T09:18:16;94465.13;;;11.35;39.18
35778;BME280;21899;42.662;23.316;2024-03-23T09:20:41;94458.75;;;11.33;39.53
35778;BME280;21899;42.662;23.316;2024-03-23T09:23:07;94459.66;;;11.50;38.97
35778;BME280;21899;42.662;23.316;2024-03-23T09:25:39;94441.22;;;11.37;39.29
35778;BME280;21899;42.662;23.316;2024-03-23T09:28:08;94441.72;;;11.41;39.49
35778;BME280;21899;42.662;23.316;2024-03-23T09:30:34;94446.16;;;11.44;38.69
35778;BME280;21899;42.662;23.316;2024-03-23T09:33:00;94439.69;;;11.31;38.94
35778;BME280;21899;42.662;23.316;2024-03-23T09:35:26;94439.31;;;11.43;39.24
35778;BME280;21899;42.662;23.316;2024-03-23T09:37:52;94430.66;;;11.59;38.45
35778;BME280;21899;42.662;23.316;2024-03-23T09:40:17;94438.19;;;11.75;38.55
35778;BME280;21899;42.662;23.316;2024-03-23T09:42:49;94426.69;;;11.80;38.91
35778;BME280;21899;42.662;23.316;2024-03-23T09:45:29;94418.81;;;11.71;38.93
35778;BME280;21899;42.662;23.316;2024-03-23T09:47:55;94411.91;;;11.96;39.10
35778;BME280;21899;42.662;23.316;2024-03-23T09:50:21;94400.22;;;12.05;38.05
35778;BME280;21899;42.662;23.316;2024-03-23T09:52:47;94412.53;;;12.17;37.84
35778;BME280;21899;42.662;23.316;2024-03-23T09:55:13;94406.75;;;12.29;37.37
35778;BME280;21899;42.662;23.316;2024-03-23T09:57:42;94386.91;;;12.27;37.59
35778;BME280;21899;42.662;23.316;2024-03-23T10:00:08;94393.03;;;12.33;37.20
35778;BME280;21899;42.662;23.316;2024-03-23T10:02:35;94396.84;;;12.52;37.38
35778;BME280;21899;42.662;23.316;2024-03-23T10:05:01;94393.22;;;12.66;36.43
35778;BME280;21899;42.662;23.316;2024-03-23T10:07:27;94387.41;;;12.79;36.35
35778;BME280;21899;42.662;23.316;2024-03-23T10:09:56;94382.03;;;12.84;36.21
35778;BME280;21899;42.662;23.316;2024-03-23T10:12:23;94386.94;;;12.91;35.32
35778;BME280;21899;42.662;23.316;2024-03-23T10:14:49;94377.16;;;12.99;35.74
35778;BME280;21899;42.662;23.316;2024-03-23T10:17:21;94375.53;;;13.07;34.80
35778;BME280;21899;42.662;23.316;2024-03-23T10:19:52;94384.13;;;13.22;34.91
35778;BME280;21899;42.662;23.316;2024-03-23T10:22:22;94366.25;;;13.30;34.20
35778;BME280;21899;42.662;23.316;2024-03-23T10:24:49;94365.00;;;13.42;34.04
35778;BME280;21899;42.662;23.316;2024-03-23T10:27:21;94356.69;;;13.52;33.98
35778;BME280;21899;42.662;23.316;2024-03-23T10:29:48;94357.91;;;13.67;32.64
35778;BME280;21899;42.662;23.316;2024-03-23T10:32:15;94359.59;;;13.15;33.39
35778;BME280;21899;42.662;23.316;2024-03-23T10:34:41;94355.72;;;13.38;32.75
35778;BME280;21899;42.662;23.316;2024-03-23T10:37:07;94345.88;;;13.24;32.54
35778;BME280;21899;42.662;23.316;2024-03-23T10:39:35;94352.72;;;13.19;32.05
35778;BME280;21899;42.662;23.316;2024-03-23T10:42:05;94331.41;;;13.32;32.39
35778;BME280;21899;42.662;23.316;2024-03-23T10:44:31;94328.50;;;13.41;31.79
35778;BME280;21899;42.662;23.316;2024-03-23T10:47:04;94330.94;;;13.39;32.11
35778;BME280;21899;42.662;23.316;2024-03-23T10:49:34;94316.47;;;13.54;31.87
35778;BME280;21899;42.662;23.316;2024-03-23T10:52:00;94317.19;;;13.43;31.12
35778;BME280;21899;42.662;23.316;2024-03-23T10:54:26;94309.38;;;13.51;31.29
35778;BME280;21899;42.662;23.316;2024-03-23T10:57:17;94300.78;;;13.69;30.94
35778;BME280;21899;42.662;23.316;2024-03-23T10:59:46;94301.47;;;13.91;31.11
35778;BME280;21899;42.662;23.316;2024-03-23T11:02:21;94287.69;;;14.00;30.25
35778;BME280;21899;42.662;23.316;2024-03-23T11:04:47;94288.88;;;14.16;30.92
35778;BME280;21899;42.662;23.316;2024-03-23T11:07:32;94283.69;;;14.35;30.98
35778;BME280;21899;42.662;23.316;2024-03-23T11:09:58;94272.09;;;14.45;30.67
35778;BME280;21899;42.662;23.316;2024-03-23T11:12:25;94275.41;;;14.68;29.86
35778;BME280;21899;42.662;23.316;2024-03-23T11:15:11;94265.34;;;14.68;30.29
35778;BME280;21899;42.662;23.316;2024-03-23T11:17:37;94261.50;;;14.53;30.23
35778;BME280;21899;42.662;23.316;2024-03-23T11:20:04;94250.50;;;14.45;30.41
35778;BME280;21899;42.662;23.316;2024-03-23T11:22:48;94241.13;;;14.46;29.71
35778;BME280;21899;42.662;23.316;2024-03-23T11:25:24;94247.00;;;14.50;29.94
35778;BME280;21899;42.662;23.316;2024-03-23T11:27:52;94244.97;;;14.67;30.24
35778;BME280;21899;42.662;23.316;2024-03-23T11:30:22;94241.94;;;14.82;29.83
35778;BME280;21899;42.662;23.316;2024-03-23T11:32:53;94239.91;;;14.88;29.28
35778;BME280;21899;42.662;23.316;2024-03-23T11:35:34;94224.19;;;14.51;29.92
35778;BME280;21899;42.662;23.316;2024-03-23T11:40:30;94227.41;;;14.44;30.88
35778;BME280;21899;42.662;23.316;2024-03-23T11:42:58;94227.03;;;14.64;30.28
35778;BME280;21899;42.662;23.316;2024-03-23T11:45:24;94216.19;;;14.70;29.62
35778;BME280;21899;42.662;23.316;2024-03-23T11:48:22;94212.94;;;14.82;29.66
35778;BME280;21899;42.662;23.316;2024-03-23T11:50:49;94198.00;;;15.06;29.38
35778;BME280;21899;42.662;23.316;2024-03-23T11:53:16;94187.03;;;14.92;29.98
35778;BME280;21899;42.662;23.316;2024-03-23T11:55:52;94188.38;;;15.10;29.59
35778;BME280;21899;42.662;23.316;2024-03-23T11:58:22;94180.81;;;15.33;29.66
35778;BME280;21899;42.662;23.316;2024-03-23T12:01:01;94156.38;;;14.84;29.60
35778;BME280;21899;42.662;23.316;2024-03-23T12:03:29;94172.31;;;14.88;30.08
35778;BME280;21899;42.662;23.316;2024-03-23T12:05:57;94168.47;;;14.78;30.13
35778;BME280;21899;42.662;23.316;2024-03-23T12:08:33;94161.38;;;15.05;30.32
35778;BME280;21899;42.662;23.316;2024-03-23T12:11:10;94164.34;;;15.31;29.10
35778;BME280;21899;42.662;23.316;2024-03-23T12:13:37;94161.28;;;15.40;29.11
35778;BME280;21899;42.662;23.316;2024-03-23T12:16:12;94149.16;;;15.52;28.88
35778;BME280;21899;42.662;23.316;2024-03-23T12:18:40;94138.53;;;15.54;28.74
35778;BME280;21899;42.662;23.316;2024-03-23T12:21:06;94147.38;;;15.79;28.32
35778;BME280;21899;42.662;23.316;2024-03-23T12:23:32;94142.09;;;15.86;26.66
35778;BME280;21899;42.662;23.316;2024-03-23T12:25:58;94129.16;;;15.79;26.43
35778;BME280;21899;42.662;23.316;2024-03-23T12:28:24;94133.50;;;15.88;26.70
35778;BME280;21899;42.662;23.316;2024-03-23T12:30:49;94132.41;;;15.96;27.17
35778;BME280;21899;42.662;23.316;2024-03-23T12:33:15;94131.13;;;15.97;26.73
35778;BME280;21899;42.662;23.316;2024-03-23T12:35:40;94128.06;;;16.06;26.62
35778;BME280;21899;42.662;23.316;2024-03-23T12:38:06;94113.16;;;16.18;25.92
35778;BME280;21899;42.662;23.316;2024-03-23T12:40:32;94108.09;;;16.09;26.33
35778;BME280;21899;42.662;23.316;2024-03-23T12:42:58;94106.84;;;16.10;26.35
35778;BME280;21899;42.662;23.316;2024-03-23T12:45:23;94105.47;;;16.22;24.37
35778;BME280;21899;42.662;23.316;2024-03-23T12:47:49;94099.97;;;16.09;26.43
35778;BME280;21899;42.662;23.316;2024-03-23T12:50:14;94113.00;;;16.29;25.92
35778;BME280;21899;42.662;23.316;2024-03-23T12:52:40;94095.19;;;16.15;21.20
35778;BME280;21899;42.662;23.316;2024-03-23T12:55:05;94093.22;;;16.16;22.54
35778;BME280;21899;42.662;23.316;2024-03-23T12:57:32;94083.13;;;16.16;22.10
35778;BME280;21899;42.662;23.316;2024-03-23T12:59:58;94084.88;;;16.14;21.68
35778;BME280;21899;42.662;23.316;2024-03-23T13:02:24;94072.78;;;16.15;21.48
35778;BME280;21899;42.662;23.316;2024-03-23T13:04:50;94078.19;;;16.33;21.38
35778;BME280;21899;42.662;23.316;2024-03-23T13:07:17;94082.16;;;16.32;20.60
35778;BME280;21899;42.662;23.316;2024-03-23T13:09:42;94064.22;;;16.29;21.23
35778;BME280;21899;42.662;23.316;2024-03-23T13:12:08;94068.91;;;16.29;20.86
35778;BME280;21899;42.662;23.316;2024-03-23T13:14:34;94061.41;;;16.35;20.90
35778;BME280;21899;42.662;23.316;2024-03-23T13:16:59;94050.28;;;16.38;20.39
35778;BME280;21899;42.662;23.316;2024-03-23T13:19:25;94056.59;;;16.28;20.84
35778;BME280;21899;42.662;23.316;2024-03-23T13:21:55;94049.56;;;16.19;21.21
35778;BME280;21899;42.662;23.316;2024-03-23T13:24:24;94046.31;;;16.08;21.59
35778;BME280;21899;42.662;23.316;2024-03-23T13:26:51;94038.53;;;16.17;21.20
35778;BME280;21899;42.662;23.316;2024-03-23T13:29:17;94043.88;;;16.23;21.34
35778;BME280;21899;42.662;23.316;2024-03-23T13:31:42;94028.16;;;16.03;21.45
35778;BME280;21899;42.662;23.316;2024-03-23T13:34:08;94041.88;;;16.23;21.22
35778;BME280;21899;42.662;23.316;2024-03-23T13:36:34;94029.88;;;16.19;20.91
35778;BME280;21899;42.662;23.316;2024-03-23T13:39:01;94030.66;;;16.32;21.07
35778;BME280;21899;42.662;23.316;2024-03-23T13:41:27;94031.91;;;16.31;20.42
35778;BME280;21899;42.662;23.316;2024-03-23T13:43:52;94029.63;;;16.35;20.74
35778;BME280;21899;42.662;23.316;2024-03-23T13:46:18;94029.00;;;16.29;21.11
35778;BME280;21899;42.662;23.316;2024-03-23T13:48:43;94022.25;;;16.36;21.66